Time;durP1;ratioP1;P1;durP2;ratioP2;P2;SDS_P1;SDS_P2;PMS_P1;PMS_P2;Temp;Humidity;BMP_temperature;BMP_pressure;BME280_temperature;BME280_humidity;BME280_pressure;Samples;Min_cycle;Max_cycle;Signal;HPM_P1;HPM_P2
2020/12/31 00:00:46;;;;;;;19.48;8.90;;;;;;;7.11;100.00;98833.41;1809717;79;21509;-72
2020/12/31 00:03:13;;;;;;;21.23;11.25;;;;;;;7.11;100.00;98835.58;1809671;79;21113;-72
2020/12/31 00:05:41;;;;;;;20.52;9.88;;;;;;;7.10;100.00;98831.23;1809721;79;21184;-73
2020/12/31 00:08:10;;;;;;;31.42;9.98;;;;;;;7.12;100.00;98837.19;1809624;79;20947;-73
2020/12/31 00:10:39;;;;;;;26.30;10.88;;;;;;;7.13;100.00;98837.44;1809643;79;21037;-72
2020/12/31 00:13:07;;;;;;;22.93;9.68;;;;;;;7.14;100.00;98833.59;1809616;79;21049;-75
2020/12/31 00:15:34;;;;;;;29.18;11.95;;;;;;;7.15;100.00;98829.75;1809693;79;21581;-75
2020/12/31 00:18:03;;;;;;;26.90;10.48;;;;;;;7.18;100.00;98835.14;1809701;79;21330;-76
2020/12/31 00:20:32;;;;;;;24.07;11.05;;;;;;;7.19;100.00;98836.20;1809644;79;20990;-73
2020/12/31 00:23:00;;;;;;;25.20;11.25;;;;;;;7.21;100.00;98829.06;1809730;78;21521;-73
2020/12/31 00:25:27;;;;;;;28.32;10.55;;;;;;;7.22;100.00;98830.67;1809673;79;20954;-73
2020/12/31 00:27:55;;;;;;;28.55;11.45;;;;;;;7.23;100.00;98833.66;1809656;79;21049;-73
2020/12/31 00:30:22;;;;;;;27.45;11.68;;;;;;;7.22;100.00;98831.48;1809679;79;21069;-72
2020/12/31 00:32:50;;;;;;;29.00;11.30;;;;;;;7.23;100.00;98832.28;1809572;79;21013;-72
2020/12/31 00:35:19;;;;;;;28.27;12.25;;;;;;;7.25;100.00;98828.69;1809628;79;20880;-73
2020/12/31 00:37:47;;;;;;;23.25;11.10;;;;;;;7.28;100.00;98832.97;1809628;79;20880;-72
2020/12/31 00:40:16;;;;;;;26.27;10.63;;;;;;;7.29;100.00;98834.58;1809644;79;21513;-71
2020/12/31 00:42:44;;;;;;;28.55;11.10;;;;;;;7.31;100.00;98835.64;1809630;79;22170;-72
2020/12/31 00:45:12;;;;;;;23.18;10.88;;;;;;;7.32;100.00;98831.79;1809646;79;20989;-72
2020/12/31 00:47:39;;;;;;;28.57;12.00;;;;;;;7.33;100.00;98828.50;1809612;79;21195;-72
2020/12/31 00:50:07;;;;;;;30.02;11.48;;;;;;;7.35;100.00;98831.73;1809610;79;21056;-72
2020/12/31 00:52:35;;;;;;;26.90;11.00;;;;;;;7.36;100.00;98831.97;1808164;79;21497;-72
2020/12/31 00:55:04;;;;;;;23.77;10.68;;;;;;;7.38;100.00;98827.00;1806506;79;21187;-71
2020/12/31 00:57:31;;;;;;;24.37;11.35;;;;;;;7.38;100.00;98827.00;1806480;79;21081;-71
2020/12/31 01:00:00;;;;;;;24.65;11.10;;;;;;;7.39;100.00;98831.35;1806537;79;21544;-72
2020/12/31 01:02:29;;;;;;;28.50;13.20;;;;;;;7.39;100.00;98832.72;1806608;79;21602;-72
2020/12/31 01:04:56;;;;;;;30.02;12.18;;;;;;;7.38;100.00;98829.73;1806547;79;21049;-72
2020/12/31 01:07:24;;;;;;;34.33;11.48;;;;;;;7.39;100.00;98835.45;1806589;79;22031;-72
2020/12/31 01:09:52;;;;;;;26.30;11.25;;;;;;;7.38;100.00;98832.47;1806497;79;20942;-72
2020/12/31 01:12:20;;;;;;;30.45;10.82;;;;;;;7.39;100.00;98834.89;1806432;79;20951;-73
2020/12/31 01:14:47;;;;;;;26.17;11.55;;;;;;;7.40;100.00;98826.14;1806480;79;21980;-73
2020/12/31 01:17:15;;;;;;;30.05;11.20;;;;;;;7.39;100.00;98826.70;1806545;79;21074;-73
2020/12/31 01:19:42;;;;;;;24.00;11.95;;;;;;;7.40;100.00;98823.41;1806571;79;23537;-73
2020/12/31 01:22:10;;;;;;;28.52;11.88;;;;;;;7.40;100.00;98826.14;1806384;78;20994;-73
2020/12/31 01:24:37;;;;;;;27.15;12.05;;;;;;;7.41;100.00;98827.19;1806498;79;21462;-73
2020/12/31 01:27:05;;;;;;;22.93;12.47;;;;;;;7.39;100.00;98823.16;1806515;79;20934;-73
2020/12/31 01:29:33;;;;;;;29.55;11.75;;;;;;;7.38;100.00;98826.45;1806487;79;21125;-74
2020/12/31 01:32:00;;;;;;;32.73;12.23;;;;;;;7.37;100.00;98824.84;1806454;79;21533;-74
2020/12/31 01:34:28;;;;;;;30.62;11.97;;;;;;;7.36;100.00;98823.78;1806425;79;20974;-73
2020/12/31 01:36:56;;;;;;;26.60;10.32;;;;;;;7.37;100.00;98819.94;1806591;79;21153;-73
2020/12/31 01:39:23;;;;;;;22.45;11.63;;;;;;;7.36;100.00;98831.41;1806474;79;20938;-73
2020/12/31 01:41:51;;;;;;;26.35;11.20;;;;;;;7.35;100.00;98822.97;1806537;79;21525;-72
2020/12/31 01:44:19;;;;;;;27.07;12.33;;;;;;;7.35;100.00;98824.91;1806514;79;21195;-73
2020/12/31 01:46:48;;;;;;;33.20;11.50;;;;;;;7.35;100.00;98820.80;1806423;79;20935;-71
2020/12/31 01:49:21;;;;;;;36.00;11.75;;;;;;;7.36;100.00;98825.15;1806563;79;21473;-72
2020/12/31 01:51:49;;;;;;;22.35;11.60;;;;;;;7.35;100.00;98820.80;1806469;79;20927;-72
2020/12/31 01:54:18;;;;;;;27.25;10.98;;;;;;;7.36;100.00;98821.05;1806515;79;20930;-72
2020/12/31 01:56:47;;;;;;;23.38;10.35;;;;;;;7.35;100.00;98817.52;1806506;79;21350;-72
2020/12/31 01:59:19;;;;;;;25.02;11.30;;;;;;;7.35;100.00;98813.42;1795244;79;21085;-72
2020/12/31 02:01:47;;;;;;;22.75;10.08;;;;;;;7.36;100.00;98812.86;1806725;79;20939;-73
2020/12/31 02:04:16;;;;;;;25.00;9.78;;;;;;;7.36;100.00;98811.50;1806426;79;22085;-73
2020/12/31 02:06:44;;;;;;;22.20;11.15;;;;;;;7.36;100.00;98810.13;1806521;79;21041;-73
2020/12/31 02:09:12;;;;;;;21.82;10.45;;;;;;;7.37;100.00;98811.18;1806462;79;21882;-73
2020/12/31 02:11:40;;;;;;;18.57;10.43;;;;;;;7.40;100.00;98813.84;1806460;79;21164;-73
2020/12/31 02:14:07;;;;;;;26.55;9.88;;;;;;;7.41;100.00;98803.98;1806406;79;20930;-72
2020/12/31 02:16:38;;;;;;;25.05;9.43;;;;;;;7.43;100.00;98808.57;1806462;79;20931;-73
2020/12/31 02:19:15;;;;;;;20.40;8.55;;;;;;;7.44;100.00;98798.45;1806548;79;20927;-73
2020/12/31 02:21:49;;;;;;;20.12;10.08;;;;;;;7.45;100.00;98797.33;1806462;78;21154;-72
2020/12/31 02:24:17;;;;;;;21.12;8.90;;;;;;;7.44;100.00;98795.16;1806216;79;20955;-71
2020/12/31 02:26:47;;;;;;;17.90;8.50;;;;;;;7.45;100.00;98794.60;1806407;79;21065;-73
2020/12/31 02:29:15;;;;;;;23.90;10.03;;;;;;;7.45;100.00;98792.67;1806405;79;21481;-73
2020/12/31 02:31:43;;;;;;;23.10;9.40;;;;;;;7.45;100.00;98793.23;1806451;79;20967;-73
2020/12/31 02:34:10;;;;;;;17.05;7.85;;;;;;;7.44;100.00;98797.09;1806466;79;21188;-72
2020/12/31 02:36:39;;;;;;;20.08;9.60;;;;;;;7.42;100.00;98787.03;1806413;79;20938;-75
2020/12/31 02:39:09;;;;;;;16.12;7.47;;;;;;;7.41;100.00;98786.79;1806416;79;20887;-74
2020/12/31 02:41:37;;;;;;;16.10;8.40;;;;;;;7.38;100.00;98782.76;1806422;79;20950;-74
2020/12/31 02:44:05;;;;;;;18.05;8.23;;;;;;;7.36;100.00;98793.19;1806478;79;20879;-74
2020/12/31 02:46:33;;;;;;;16.32;7.78;;;;;;;7.34;100.00;98792.69;1806480;79;21266;-73
2020/12/31 02:49:01;;;;;;;24.43;8.38;;;;;;;7.33;100.00;98790.28;1795229;79;20994;-74
2020/12/31 02:51:28;;;;;;;15.75;6.62;;;;;;;7.33;100.00;98790.28;1806402;79;21536;-72
2020/12/31 02:53:57;;;;;;;14.47;7.87;;;;;;;7.32;100.00;98788.11;1806244;79;21125;-72
2020/12/31 02:56:25;;;;;;;16.20;8.55;;;;;;;7.34;100.00;98798.72;1806452;79;21046;-73
2020/12/31 02:58:53;;;;;;;17.50;8.65;;;;;;;7.34;100.00;98802.25;1806346;79;21202;-72
2020/12/31 03:01:20;;;;;;;14.87;8.08;;;;;;;7.34;100.00;98798.72;1799264;79;21010;-73
2020/12/31 03:03:49;;;;;;;14.47;7.53;;;;;;;7.34;100.00;98791.33;1806438;79;20939;-72
2020/12/31 03:06:17;;;;;;;13.58;7.30;;;;;;;7.34;100.00;98786.42;1806393;79;20939;-74
2020/12/31 03:08:45;;;;;;;16.05;6.78;;;;;;;7.34;100.00;98793.25;1802709;79;20935;-72
2020/12/31 03:11:22;;;;;;;13.60;7.03;;;;;;;7.34;100.00;98785.06;1803053;79;21370;-72
2020/12/31 03:13:50;;;;;;;13.13;7.65;;;;;;;7.35;100.00;98785.31;1792652;79;21014;-73
2020/12/31 03:16:20;;;;;;;18.48;8.60;;;;;;;7.33;100.00;98784.81;1782624;80;21472;-72
2020/12/31 03:18:48;;;;;;;13.05;7.28;;;;;;;7.32;100.00;98783.20;1782386;80;21490;-73
2020/12/31 03:21:16;;;;;;;16.07;7.45;;;;;;;7.33;100.00;98777.98;1806106;79;20915;-73
2020/12/31 03:23:43;;;;;;;15.98;7.62;;;;;;;7.30;100.00;98769.87;1806621;79;21537;-73
2020/12/31 03:26:11;;;;;;;15.63;7.45;;;;;;;7.28;100.00;98769.38;1806535;79;21014;-74
2020/12/31 03:28:39;;;;;;;16.42;8.33;;;;;;;7.25;100.00;98759.88;1806577;79;21144;-74
2020/12/31 03:31:06;;;;;;;15.55;7.08;;;;;;;7.24;100.00;98766.45;1796828;79;21060;-73
2020/12/31 03:33:34;;;;;;;16.77;7.53;;;;;;;7.24;100.00;98773.84;1782513;80;21118;-73
2020/12/31 03:36:02;;;;;;;15.78;7.55;;;;;;;7.23;100.00;98776.33;1782525;80;21384;-72
2020/12/31 03:38:29;;;;;;;17.90;8.13;;;;;;;7.22;100.00;98772.79;1782426;80;21026;-72
2020/12/31 03:40:58;;;;;;;13.88;6.92;;;;;;;7.21;100.00;98777.20;1789734;79;21587;-72
2020/12/31 03:43:25;;;;;;;16.12;10.05;;;;;;;7.21;100.00;98790.28;1806552;79;21061;-73
2020/12/31 03:45:53;;;;;;;14.47;7.85;;;;;;;7.21;100.00;98788.12;1806563;79;21092;-73
2020/12/31 03:48:21;;;;;;;14.73;7.60;;;;;;;7.20;100.00;98773.66;1806597;79;21198;-73
2020/12/31 03:50:48;;;;;;;14.28;6.70;;;;;;;7.20;100.00;98764.66;1805418;79;20931;-73
2020/12/31 03:53:16;;;;;;;11.63;7.17;;;;;;;7.20;100.00;98757.28;1806357;79;21172;-72
2020/12/31 03:55:44;;;;;;;12.18;7.08;;;;;;;7.21;100.00;98771.18;1806538;79;20926;-72
2020/12/31 03:58:12;;;;;;;14.18;8.78;;;;;;;7.21;100.00;98763.55;1806637;79;21564;-73
2020/12/31 04:00:40;;;;;;;12.82;6.75;;;;;;;7.21;100.00;98756.16;1806515;79;21365;-73
2020/12/31 04:03:09;;;;;;;13.80;7.72;;;;;;;7.21;100.00;98750.70;1806560;79;21077;-74
2020/12/31 04:05:36;;;;;;;17.82;8.78;;;;;;;7.19;100.00;98753.50;1806648;79;21469;-72
2020/12/31 04:08:04;;;;;;;14.45;8.43;;;;;;;7.17;100.00;98753.81;1790681;79;21062;-72
2020/12/31 04:10:32;;;;;;;13.25;8.43;;;;;;;7.17;100.00;98759.27;1775789;80;21001;-75
2020/12/31 04:12:59;;;;;;;15.25;8.50;;;;;;;7.18;100.00;98764.17;1782416;80;21189;-76
2020/12/31 04:15:27;;;;;;;19.75;10.05;;;;;;;7.18;100.00;98766.34;1782413;80;20935;-76
2020/12/31 04:17:55;;;;;;;20.52;11.43;;;;;;;7.19;100.00;98768.52;1800388;79;21028;-73
2020/12/31 04:20:23;;;;;;;18.25;10.10;;;;;;;7.16;100.00;98772.67;1806569;79;20994;-74
2020/12/31 04:22:51;;;;;;;19.37;10.18;;;;;;;7.11;100.00;98765.98;1806499;79;20970;-74
2020/12/31 04:25:18;;;;;;;17.55;9.78;;;;;;;7.13;100.00;98765.66;1806556;79;21949;-74
2020/12/31 04:27:46;;;;;;;20.65;8.98;;;;;;;7.12;100.00;98766.78;1806482;79;21486;-73
2020/12/31 04:30:14;;;;;;;17.60;9.70;;;;;;;7.10;100.00;98778.01;1806654;79;21501;-73
2020/12/31 04:32:41;;;;;;;19.45;9.30;;;;;;;7.09;100.00;98789.23;1806386;79;21010;-74
2020/12/31 04:35:09;;;;;;;17.23;9.48;;;;;;;7.09;100.00;98784.59;1799435;79;21093;-75
2020/12/31 04:37:37;;;;;;;19.87;10.98;;;;;;;7.07;100.00;98785.45;1798216;79;21537;-74
2020/12/31 04:40:05;;;;;;;15.45;9.90;;;;;;;7.07;100.00;98789.55;1798038;79;21049;-73
2020/12/31 04:42:35;;;;;;;20.00;10.20;;;;;;;7.06;100.00;98796.69;1797654;79;21548;-74
2020/12/31 04:45:04;;;;;;;19.98;10.43;;;;;;;7.07;100.00;98796.93;1798132;79;21132;-73
2020/12/31 04:47:46;;;;;;;26.42;10.80;;;;;;;7.08;100.00;98795.26;1798123;79;21126;-73
2020/12/31 04:50:14;;;;;;;20.02;9.93;;;;;;;7.07;100.00;98793.64;1797294;79;22134;-73
2020/12/31 04:52:42;;;;;;;20.08;10.40;;;;;;;7.07;100.00;98799.66;1771534;79;21107;-73
2020/12/31 04:55:09;;;;;;;22.67;11.18;;;;;;;7.09;100.00;98805.06;1790720;79;21133;-74
2020/12/31 04:57:37;;;;;;;26.52;12.28;;;;;;;7.09;100.00;98805.06;1764653;80;21018;-73
2020/12/31 05:00:07;;;;;;;23.12;12.47;;;;;;;7.08;100.00;98803.45;1781938;80;21113;-74
2020/12/31 05:02:34;;;;;;;22.75;12.20;;;;;;;7.08;100.00;98797.98;1781915;80;21205;-72
2020/12/31 05:05:03;;;;;;;18.57;10.05;;;;;;;7.09;100.00;98809.15;1781869;80;21564;-73
2020/12/31 05:07:30;;;;;;;24.47;11.57;;;;;;;7.09;100.00;98811.08;1781881;80;21034;-73
2020/12/31 05:10:10;;;;;;;27.00;12.18;;;;;;;7.08;100.00;98804.81;1790378;79;21113;-72
2020/12/31 05:12:38;;;;;;;21.45;11.38;;;;;;;7.07;100.00;98805.92;1783857;79;21117;-73
2020/12/31 05:15:07;;;;;;;25.23;12.40;;;;;;;7.07;100.00;98810.58;1781151;80;21354;-72
2020/12/31 05:17:34;;;;;;;21.87;12.15;;;;;;;7.05;100.00;98809.52;1782102;80;21070;-72
2020/12/31 05:20:14;;;;;;;22.10;11.25;;;;;;;7.05;100.00;98806.79;1782438;80;20939;-74
2020/12/31 05:22:41;;;;;;;25.82;12.80;;;;;;;7.05;100.00;98808.16;1782469;80;21541;-73
2020/12/31 05:25:10;;;;;;;21.77;10.68;;;;;;;7.02;100.00;98810.14;1782441;80;21006;-73
2020/12/31 05:27:37;;;;;;;21.87;12.15;;;;;;;7.02;100.00;98823.78;1782444;80;21324;-73
2020/12/31 05:30:08;;;;;;;25.70;12.85;;;;;;;7.02;100.00;98822.42;1782362;80;20951;-73
2020/12/31 05:32:40;;;;;;;20.83;10.97;;;;;;;7.02;100.00;98825.16;1782665;80;21488;-73
2020/12/31 05:35:15;;;;;;;24.25;12.60;;;;;;;7.03;100.00;98839.05;1782502;80;20927;-73
2020/12/31 05:37:44;;;;;;;24.47;13.53;;;;;;;7.03;100.00;98842.33;1782472;80;21069;-73
2020/12/31 05:40:13;;;;;;;31.68;16.35;;;;;;;7.01;99.59;98848.66;1782416;80;22865;-73
2020/12/31 05:42:43;;;;;;;33.35;16.07;;;;;;;7.01;99.87;98859.02;1782348;80;21121;-72
2020/12/31 05:45:13;;;;;;;49.20;23.87;;;;;;;7.01;99.64;98871.30;1782417;80;20955;-72
2020/12/31 05:47:49;;;;;;;42.65;22.17;;;;;;;6.99;99.46;98859.08;1782371;80;21139;-73
2020/12/31 05:50:26;;;;;;;35.83;17.87;;;;;;;7.00;99.43;98864.78;1782439;80;20929;-73
2020/12/31 05:52:54;;;;;;;33.45;17.10;;;;;;;6.99;99.43;98870.80;1782453;80;22295;-73
2020/12/31 05:55:24;;;;;;;31.87;15.68;;;;;;;6.99;99.54;98863.97;1782800;80;21486;-73
2020/12/31 05:57:57;;;;;;;24.85;13.22;;;;;;;6.98;99.66;98857.46;1783090;80;20990;-73
2020/12/31 06:00:28;;;;;;;32.42;13.20;;;;;;;6.98;99.52;98866.45;1783324;79;21466;-75
2020/12/31 06:02:59;;;;;;;28.90;13.83;;;;;;;6.96;99.56;98855.03;1782979;80;21057;-73
2020/12/31 06:05:28;;;;;;;24.43;11.08;;;;;;;6.96;99.65;98856.41;1783039;80;21446;-73
2020/12/31 06:07:58;;;;;;;25.85;13.08;;;;;;;6.96;99.58;98855.03;1782856;79;20943;-73
2020/12/31 06:10:31;;;;;;;25.20;13.58;;;;;;;6.96;99.53;98861.86;1782946;80;20947;-73
2020/12/31 06:13:07;;;;;;;26.00;12.03;;;;;;;6.96;99.53;98861.86;1783313;80;21498;-73
2020/12/31 06:15:37;;;;;;;22.70;13.38;;;;;;;6.94;99.51;98855.91;1783024;79;21478;-74
2020/12/31 06:18:06;;;;;;;28.00;12.65;;;;;;;6.95;99.47;98860.25;1783042;80;22054;-73
2020/12/31 06:20:37;;;;;;;29.65;13.35;;;;;;;6.96;99.37;98860.50;1784356;79;21006;-73
2020/12/31 06:23:09;;;;;;;32.30;13.70;;;;;;;6.96;99.18;98857.21;1801748;79;21061;-74
2020/12/31 06:25:45;;;;;;;24.10;12.35;;;;;;;6.94;99.10;98851.81;1783114;80;20915;-73
2020/12/31 06:28:18;;;;;;;32.42;14.47;;;;;;;6.97;99.10;98858.02;1794917;79;21116;-73
2020/12/31 06:30:54;;;;;;;27.50;13.25;;;;;;;6.97;99.05;98855.28;1809740;79;21359;-73
2020/12/31 06:33:46;;;;;;;31.90;14.68;;;;;;;6.96;98.99;98855.84;1809612;79;21117;-74
2020/12/31 06:36:14;;;;;;;27.70;13.65;;;;;;;6.97;99.07;98862.11;1809941;79;21452;-73
2020/12/31 06:38:47;;;;;;;31.30;15.05;;;;;;;6.97;99.12;98864.84;1791787;79;20999;-73
2020/12/31 06:41:37;;;;;;;37.60;16.37;;;;;;;6.93;99.14;98861.14;1782979;80;21559;-73
2020/12/31 06:44:14;;;;;;;40.40;18.17;;;;;;;6.93;99.23;98870.69;1783099;80;21265;-74
2020/12/31 06:46:46;;;;;;;43.35;18.52;;;;;;;6.92;99.34;98864.42;1782871;80;21097;-74
2020/12/31 06:49:14;;;;;;;43.50;19.12;;;;;;;6.89;99.48;98875.16;1782922;80;20990;-74
2020/12/31 06:51:42;;;;;;;40.50;19.52;;;;;;;6.87;99.59;98879.55;1782889;80;20959;-74
2020/12/31 06:54:11;;;;;;;32.48;16.32;;;;;;;6.86;99.73;98876.57;1782685;80;21541;-73
2020/12/31 06:56:47;;;;;;;28.80;14.90;;;;;;;6.88;99.80;98870.81;1782350;80;21370;-73
2020/12/31 06:59:38;;;;;;;32.40;14.90;;;;;;;6.87;99.85;98872.73;1782463;80;21493;-74
2020/12/31 07:02:21;;;;;;;33.70;17.42;;;;;;;6.88;99.83;98876.27;1782360;79;20915;-74
2020/12/31 07:04:49;;;;;;;32.85;19.85;;;;;;;6.86;99.92;98881.22;1782390;79;21065;-74
2020/12/31 07:07:24;;;;;;;28.57;17.65;;;;;;;6.85;99.97;98889.16;1782414;79;21042;-74
2020/12/31 07:10:01;;;;;;;32.98;16.75;;;;;;;6.80;100.00;98890.63;1782413;80;22252;-73
2020/12/31 07:12:38;;;;;;;35.70;17.10;;;;;;;6.80;100.00;98890.63;1782347;79;20884;-74
2020/12/31 07:15:09;;;;;;;35.63;19.17;;;;;;;6.81;100.00;98893.61;1782398;80;21042;-75
2020/12/31 07:17:41;;;;;;;38.42;16.20;;;;;;;6.79;100.00;98898.01;1782737;80;20940;-74
2020/12/31 07:20:13;;;;;;;31.12;15.88;;;;;;;6.78;100.00;98900.48;1782642;80;21062;-73
2020/12/31 07:22:41;;;;;;;;;;;;;;;6.77;100.00;98907.05;1784960;79;21442;-73
2020/12/31 07:25:17;;;;;;;27.13;14.30;;;;;;;6.77;100.00;98908.98;1793503;79;20515;-74
2020/12/31 07:27:47;;;;;;;32.45;19.48;;;;;;;6.74;100.00;98906.30;1801797;79;21030;-72
2020/12/31 07:30:19;;;;;;;33.45;18.80;;;;;;;6.73;100.00;98897.06;1801079;79;21053;-73
2020/12/31 07:33:09;;;;;;;38.65;22.30;;;;;;;6.72;100.00;98900.90;1806585;79;27043;-72
2020/12/31 07:35:40;;;;;;;36.95;17.87;;;;;;;6.73;100.00;98907.41;1806528;79;21466;-73
2020/12/31 07:38:13;;;;;;;31.85;19.00;;;;;;;6.74;99.82;98912.31;1806422;79;20954;-73
2020/12/31 07:40:52;;;;;;;32.45;19.55;;;;;;;6.74;99.82;98912.31;1803296;79;20997;-74
2020/12/31 07:43:26;;;;;;;36.38;19.85;;;;;;;6.72;99.62;98921.36;1801534;78;21164;-73
2020/12/31 07:45:59;;;;;;;32.13;17.15;;;;;;;6.68;99.70;98914.34;1805020;79;21164;-73
2020/12/31 07:48:29;;;;;;;42.78;22.90;;;;;;;6.69;99.93;98923.33;1805591;79;21693;-76
2020/12/31 07:51:02;;;;;;;44.88;22.62;;;;;;;6.72;100.00;98916.71;1805756;79;21074;-75
2020/12/31 07:53:30;;;;;;;38.25;22.67;;;;;;;6.72;100.00;98916.71;1805570;79;21057;-73
2020/12/31 07:55:58;;;;;;;32.15;18.25;;;;;;;6.73;99.93;98924.34;1808443;79;21196;-75
2020/12/31 07:58:29;;;;;;;30.57;17.10;;;;;;;6.72;100.00;98919.44;1809054;79;21105;-71
2020/12/31 08:00:59;;;;;;;25.90;13.40;;;;;;;6.71;100.00;98921.11;1809650;79;21203;-70
2020/12/31 08:03:27;;;;;;;27.25;14.35;;;;;;;6.70;100.00;98918.13;1809667;79;20942;-71
2020/12/31 08:06:01;;;;;;;29.67;15.80;;;;;;;6.71;100.00;98917.83;1809683;79;21065;-74
2020/12/31 08:08:28;;;;;;;29.00;17.57;;;;;;;6.73;100.00;98918.33;1809793;79;21664;-74
2020/12/31 08:10:56;;;;;;;30.95;15.75;;;;;;;6.77;100.00;98915.80;1809732;79;20907;-75
2020/12/31 08:13:23;;;;;;;31.97;15.10;;;;;;;6.76;100.00;98919.08;1809684;79;21078;-81
2020/12/31 08:15:54;;;;;;;34.98;16.17;;;;;;;6.75;100.00;98922.11;1809661;79;21120;-77
2020/12/31 08:18:23;;;;;;;36.98;19.35;;;;;;;6.73;100.00;98915.59;1809856;79;20982;-76
2020/12/31 08:20:51;;;;;;;30.52;17.27;;;;;;;6.74;100.00;98915.05;1809743;79;21044;-81
2020/12/31 08:23:28;;;;;;;44.10;24.10;;;;;;;6.75;100.00;98912.01;1809779;79;21057;-77
2020/12/31 08:25:57;;;;;;;45.83;19.92;;;;;;;6.77;100.00;98911.70;1809765;79;21476;-76
2020/12/31 08:28:24;;;;;;;37.35;21.62;;;;;;;6.77;100.00;98916.60;1810264;79;21497;-80
2020/12/31 08:30:52;;;;;;;39.80;20.82;;;;;;;6.77;100.00;98910.34;1810496;79;20986;-81
2020/12/31 08:33:24;;;;;;;32.80;19.98;;;;;;;6.78;100.00;98910.03;1809672;79;21076;-81
2020/12/31 08:35:52;;;;;;;;;;;;;;;6.81;100.00;98912.15;1812580;79;21512;-81
2020/12/31 08:38:21;;;;;;;27.50;13.53;;;;;;;6.81;100.00;98903.16;1809819;79;21196;-80
2020/12/31 08:40:56;;;;;;;29.20;15.05;;;;;;;6.79;100.00;98906.75;1809724;79;21065;-79
2020/12/31 08:43:33;;;;;;;32.23;17.57;;;;;;;6.78;100.00;98916.05;1809171;79;20950;-80
2020/12/31 08:46:00;;;;;;;27.45;14.35;;;;;;;6.76;100.00;98907.36;1809819;79;20966;-84
2020/12/31 08:48:30;;;;;;;31.33;13.90;;;;;;;6.77;100.00;98915.80;1782776;79;20939;-79
2020/12/31 08:51:11;;;;;;;26.02;13.43;;;;;;;6.77;100.00;98917.97;1809882;79;21194;-72
2020/12/31 08:54:00;;;;;;;27.52;13.70;;;;;;;6.76;100.00;98911.45;1779977;79;20998;-83
2020/12/31 08:56:31;;;;;;;25.92;13.00;;;;;;;6.72;100.00;98906.36;1809583;79;21065;-75
2020/12/31 08:59:10;;;;;;;25.17;13.08;;;;;;;6.75;100.00;98912.56;1809900;79;21480;-80
2020/12/31 09:01:43;;;;;;;25.27;12.33;;;;;;;6.76;100.00;98916.91;1809789;79;20922;-75
2020/12/31 09:04:20;;;;;;;23.85;12.10;;;;;;;6.79;100.00;98914.94;1809677;79;21369;-78
2020/12/31 09:06:51;;;;;;;28.40;14.43;;;;;;;6.81;100.00;98914.07;1809732;79;21592;-80
2020/12/31 09:09:27;;;;;;;29.15;15.80;;;;;;;6.80;100.00;98915.19;1809759;79;20930;-77
2020/12/31 09:12:03;;;;;;;38.78;21.90;;;;;;;6.82;100.00;98914.32;1810163;79;21037;-76
2020/12/31 09:14:32;;;;;;;30.17;16.70;;;;;;;6.83;100.00;98920.03;1810054;79;21148;-76
2020/12/31 09:17:00;;;;;;;25.85;16.35;;;;;;;6.82;100.00;98915.69;1809725;79;22294;-77
2020/12/31 09:19:28;;;;;;;19.87;11.18;;;;;;;6.83;100.00;98920.03;1809608;79;21014;-78
2020/12/31 09:21:55;;;;;;;21.75;13.50;;;;;;;6.84;100.00;98912.09;1809572;79;21065;-80
2020/12/31 09:24:23;;;;;;;26.17;14.75;;;;;;;6.83;100.00;98911.29;1808310;79;21180;-79
2020/12/31 09:27:00;;;;;;;21.97;12.13;;;;;;;6.85;100.00;98908.25;1790260;78;21156;-78
2020/12/31 09:29:30;;;;;;;21.15;11.28;;;;;;;6.85;100.00;98906.89;1786399;79;22224;-77
2020/12/31 09:31:59;;;;;;;19.23;10.20;;;;;;;6.86;100.00;98903.86;1780440;80;21125;-79
2020/12/31 09:34:26;;;;;;;17.55;11.03;;;;;;;6.85;100.00;98900.88;1782397;80;21137;-80
2020/12/31 09:37:01;;;;;;;19.15;11.25;;;;;;;6.84;100.00;98894.36;1787325;79;21620;-75
2020/12/31 09:39:28;;;;;;;20.92;11.50;;;;;;;6.84;100.00;98894.36;1800117;79;21129;-78
2020/12/31 09:41:56;;;;;;;19.98;10.68;;;;;;;6.86;100.00;98890.77;1809108;79;21484;-79
2020/12/31 09:44:24;;;;;;;22.02;10.30;;;;;;;6.88;100.00;98884.45;1809332;79;21050;-79
2020/12/31 09:46:51;;;;;;;18.77;11.50;;;;;;;6.89;100.00;98890.96;1788802;79;20958;-76
2020/12/31 09:49:19;;;;;;;25.08;13.83;;;;;;;6.92;100.00;98894.44;1780202;79;21009;-76
2020/12/31 09:51:48;;;;;;;20.75;12.55;;;;;;;6.94;100.00;98882.63;1788936;79;21060;-79
2020/12/31 09:54:15;;;;;;;23.57;11.85;;;;;;;6.96;100.00;98879.04;1809233;79;23577;-76
2020/12/31 09:56:43;;;;;;;18.27;10.00;;;;;;;7.01;100.00;98884.94;1791160;79;21185;-78
2020/12/31 09:59:11;;;;;;;21.10;11.33;;;;;;;7.04;100.00;98884.33;1774280;80;21044;-83
2020/12/31 10:01:39;;;;;;;19.17;10.80;;;;;;;7.04;100.00;98878.86;1774304;79;21076;-77
2020/12/31 10:04:06;;;;;;;26.40;16.82;;;;;;;7.04;100.00;98878.86;1774235;80;21072;-76
2020/12/31 10:06:34;;;;;;;35.73;25.72;;;;;;;7.00;100.00;98878.42;1775914;79;21623;-77
2020/12/31 10:09:02;;;;;;;42.20;30.12;;;;;;;6.95;100.00;98877.98;1795859;79;21164;-77
2020/12/31 10:11:29;;;;;;;29.50;19.80;;;;;;;6.92;100.00;98871.81;1805899;78;20994;-75
2020/12/31 10:13:57;;;;;;;24.75;15.38;;;;;;;6.93;100.00;98874.78;1798103;79;21026;-86
2020/12/31 10:16:25;;;;;;;25.95;14.28;;;;;;;6.93;100.00;98874.78;1782255;80;21113;-80
2020/12/31 10:18:53;;;;;;;27.27;12.73;;;;;;;6.93;100.00;98872.06;1782544;80;22346;-80
2020/12/31 10:21:20;;;;;;;23.77;12.53;;;;;;;6.92;100.00;98859.53;1779934;79;21170;-79
2020/12/31 10:23:48;;;;;;;24.80;13.20;;;;;;;6.92;100.00;98860.89;1787454;79;21541;-77
2020/12/31 10:26:20;;;;;;;27.37;14.05;;;;;;;6.91;100.00;98855.99;1796009;79;21630;-76
2020/12/31 10:28:47;;;;;;;26.65;12.80;;;;;;;6.91;100.00;98855.99;1780121;80;20910;-75
2020/12/31 10:31:15;;;;;;;22.22;12.63;;;;;;;6.93;100.00;98858.41;1779771;80;21369;-74
2020/12/31 10:33:43;;;;;;;24.43;12.35;;;;;;;6.93;100.00;98853.73;1780138;80;21132;-77
2020/12/31 10:36:11;;;;;;;31.73;14.15;;;;;;;6.95;100.00;98850.70;1780300;80;21061;-81
2020/12/31 10:38:38;;;;;;;26.85;13.48;;;;;;;6.97;100.00;98853.92;1780780;80;21127;-79
2020/12/31 10:41:07;;;;;;;27.65;13.80;;;;;;;6.99;100.00;98850.88;1784214;78;21041;-79
2020/12/31 10:43:34;;;;;;;28.70;12.23;;;;;;;7.01;100.00;98845.37;1786190;80;22230;-88
2020/12/31 10:46:04;;;;;;;22.80;13.08;;;;;;;7.03;100.00;98848.59;1785799;78;21037;-79
2020/12/31 10:48:32;;;;;;;23.52;12.63;;;;;;;7.05;100.00;98845.56;1784471;79;21093;-77
2020/12/31 10:50:59;;;;;;;23.55;12.13;;;;;;;7.05;100.00;98840.91;1785018;80;20998;-77
2020/12/31 10:53:27;;;;;;;21.85;10.95;;;;;;;7.06;100.00;98840.35;1784086;80;21048;-79
2020/12/31 10:55:54;;;;;;;24.72;11.65;;;;;;;7.08;100.00;98842.21;1782376;80;21365;-78
2020/12/31 10:58:22;;;;;;;24.90;12.28;;;;;;;7.10;100.00;98831.79;1782514;80;20943;-75
2020/12/31 11:00:49;;;;;;;20.80;11.15;;;;;;;7.12;100.00;98831.73;1783916;79;21033;-84
2020/12/31 11:03:18;;;;;;;20.45;10.85;;;;;;;7.15;100.00;98828.94;1783165;79;21054;-76
2020/12/31 11:05:47;;;;;;;27.02;12.10;;;;;;;7.16;100.00;98829.99;1782540;80;21041;-76
2020/12/31 11:08:14;;;;;;;18.82;10.40;;;;;;;7.18;100.00;98830.48;1781797;80;21810;-76
2020/12/31 11:10:42;;;;;;;23.00;11.88;;;;;;;7.17;100.00;98831.61;1774808;79;20994;-82
2020/12/31 11:13:10;;;;;;;21.97;12.03;;;;;;;7.18;100.00;98826.39;1774940;79;21549;-79
2020/12/31 11:15:37;;;;;;;24.65;11.25;;;;;;;7.18;100.00;98826.95;1774907;80;21186;-83
2020/12/31 11:18:05;;;;;;;35.13;13.70;;;;;;;7.16;100.00;98823.17;1775251;80;21245;-83
2020/12/31 11:20:33;;;;;;;30.25;13.48;;;;;;;7.14;100.00;98827.33;1775352;80;22380;-84
2020/12/31 11:23:00;;;;;;;29.07;15.35;;;;;;;7.14;100.00;98819.94;1774792;80;21075;-83
2020/12/31 11:25:28;;;;;;;27.45;13.03;;;;;;;7.11;100.00;98817.03;1776203;79;21490;-85
2020/12/31 11:27:55;;;;;;;23.38;11.65;;;;;;;7.10;100.00;98824.97;1806808;79;21081;-83
2020/12/31 11:30:23;;;;;;;24.80;12.63;;;;;;;7.08;100.00;98818.45;1806683;78;21137;-71
2020/12/31 11:32:51;;;;;;;23.07;10.68;;;;;;;7.09;100.00;98814.61;1806686;79;22245;-74